createdAt,value
2022-09-24T00:03:31.148Z,15.68
2022-09-24T00:08:33.646Z,14.25
2022-09-24T00:13:36.174Z,15.40
2022-09-24T00:18:39.929Z,26.77
2022-09-24T00:28:50.520Z,22.17
2022-09-24T00:33:54.453Z,17.23
2022-09-24T00:44:01.077Z,43.93
2022-09-24T00:49:14.417Z,35.67
2022-09-24T00:54:20.430Z,27.00
2022-09-24T00:59:24.033Z,30.35
2022-09-24T01:09:31.230Z,25.05
2022-09-24T01:15:02.060Z,19.45
2022-09-24T01:20:32.503Z,16.55
2022-09-24T01:26:33.633Z,13.30
2022-09-24T01:31:46.970Z,14.23
2022-09-24T01:36:50.223Z,12.13
2022-09-24T01:41:53.908Z,14.32
2022-09-24T01:46:57.263Z,11.88
2022-09-24T01:52:01.621Z,11.40
2022-09-24T01:57:14.799Z,11.60
2022-09-24T02:02:23.364Z,9.77
2022-09-24T02:07:40.131Z,9.93
2022-09-24T02:12:44.310Z,9.80
2022-09-24T02:17:49.215Z,8.80
2022-09-24T02:22:51.963Z,9.20
2022-09-24T02:27:54.423Z,8.53
2022-09-24T02:32:57.137Z,9.85
2022-09-24T02:38:02.822Z,9.83
2022-09-24T02:43:08.426Z,11.32
2022-09-24T02:48:11.970Z,9.95
2022-09-24T02:53:14.195Z,10.30
2022-09-24T02:58:16.754Z,10.40
2022-09-24T03:03:19.115Z,10.45
2022-09-24T03:08:22.361Z,10.18
2022-09-24T03:13:25.064Z,9.57
2022-09-24T03:18:27.379Z,11.13
2022-09-24T03:23:30.816Z,10.90
2022-09-24T03:28:33.166Z,11.57
2022-09-24T03:33:41.815Z,11.65
2022-09-24T03:38:45.779Z,13.30
2022-09-24T03:43:48.478Z,12.60
2022-09-24T03:48:52.283Z,12.50
2022-09-24T03:53:54.566Z,13.25
2022-09-24T03:58:57.042Z,14.10
2022-09-24T04:04:01.288Z,14.13
2022-09-24T04:09:03.666Z,13.02
2022-09-24T04:14:06.095Z,13.00
2022-09-24T04:19:08.600Z,13.65
2022-09-24T04:24:11.076Z,12.63
2022-09-24T04:29:13.653Z,13.05
2022-09-24T04:34:15.979Z,13.98
2022-09-24T04:39:18.600Z,12.00
2022-09-24T04:44:21.226Z,13.13
2022-09-24T04:49:24.380Z,13.83
2022-09-24T04:54:29.821Z,13.57
2022-09-24T04:59:32.034Z,13.93
2022-09-24T05:04:36.219Z,13.90
2022-09-24T05:09:41.052Z,13.63
2022-09-24T05:14:43.354Z,13.77
2022-09-24T05:19:45.907Z,14.45
2022-09-24T05:24:48.187Z,13.85
2022-09-24T05:29:50.573Z,14.30
2022-09-24T05:34:54.050Z,13.52
2022-09-24T05:39:57.952Z,14.20
2022-09-24T05:45:00.309Z,14.50
2022-09-24T05:50:02.536Z,15.00
2022-09-24T05:55:05.478Z,13.52
2022-09-24T06:00:07.992Z,11.77
2022-09-24T06:05:16.448Z,12.95
2022-09-24T06:10:20.041Z,12.85
2022-09-24T06:15:22.653Z,13.00
2022-09-24T06:20:25.081Z,12.03
2022-09-24T06:25:29.485Z,11.98
2022-09-24T06:30:38.543Z,11.60
2022-09-24T06:35:43.906Z,10.75
2022-09-24T06:40:48.636Z,11.00
2022-09-24T06:45:51.194Z,11.07
2022-09-24T06:50:54.884Z,10.98
2022-09-24T06:55:59.843Z,11.57
2022-09-24T07:01:04.222Z,11.73
2022-09-24T07:06:12.192Z,11.48
2022-09-24T07:11:16.067Z,11.98
2022-09-24T07:16:18.593Z,11.27
2022-09-24T07:21:21.200Z,11.73
2022-09-24T07:26:23.554Z,11.60
2022-09-24T07:31:27.163Z,12.23
2022-09-24T07:36:31.487Z,12.05
2022-09-24T07:41:37.433Z,11.20
2022-09-24T07:46:47.452Z,10.50
2022-09-24T07:51:49.790Z,10.13
2022-09-24T07:56:52.198Z,10.73
2022-09-24T08:01:54.840Z,10.40
2022-09-24T08:06:58.642Z,9.63
2022-09-24T08:12:01.530Z,9.57
2022-09-24T08:17:04.188Z,9.52
2022-09-24T08:22:07.485Z,8.43
2022-09-24T08:27:12.668Z,9.52
2022-09-24T08:32:18.952Z,8.43
2022-09-24T08:37:21.264Z,8.70
2022-09-24T08:42:37.299Z,8.52
2022-09-24T08:48:01.858Z,8.68
2022-09-24T08:53:26.509Z,7.63
2022-09-24T08:58:45.158Z,8.77
2022-09-24T09:04:12.264Z,9.10
2022-09-24T09:09:23.585Z,9.30
2022-09-24T09:14:46.303Z,7.95
2022-09-24T09:19:56.883Z,7.53
2022-09-24T09:25:04.709Z,7.18
2022-09-24T09:30:14.408Z,6.05
2022-09-24T09:35:27.795Z,7.30
2022-09-24T09:40:35.644Z,6.68
2022-09-24T09:45:48.811Z,5.72
2022-09-24T09:50:52.496Z,4.72
2022-09-24T09:55:58.029Z,4.47
2022-09-24T10:01:16.125Z,8.82
2022-09-24T10:06:32.380Z,4.60
2022-09-24T10:11:35.982Z,5.35
2022-09-24T10:21:41.961Z,3.30
2022-09-24T10:26:46.064Z,3.13
2022-09-24T10:31:49.989Z,4.18
2022-09-24T10:37:00.801Z,3.08
2022-09-24T10:42:03.285Z,4.05
2022-09-24T10:47:34.647Z,3.70
2022-09-24T10:52:54.435Z,4.13
2022-09-24T10:58:14.187Z,4.45
2022-09-24T11:03:19.710Z,3.90
2022-09-24T11:08:34.154Z,4.35
2022-09-24T11:13:41.262Z,4.20
2022-09-24T11:18:54.266Z,4.47
2022-09-24T11:24:18.474Z,5.93
2022-09-24T11:29:36.227Z,4.00
2022-09-24T11:34:54.490Z,8.15
2022-09-24T11:40:16.702Z,4.80
2022-09-24T11:45:28.394Z,3.50
2022-09-24T11:50:53.279Z,3.67
2022-09-24T11:55:59.868Z,3.30
2022-09-24T12:01:07.143Z,3.60
2022-09-24T12:06:13.087Z,3.40
2022-09-24T12:11:24.637Z,3.47
2022-09-24T12:16:29.679Z,3.90
2022-09-24T12:21:40.754Z,4.72
2022-09-24T12:26:43.860Z,5.20
2022-09-24T12:37:16.668Z,4.80
2022-09-24T12:42:20.492Z,6.20
2022-09-24T12:47:33.844Z,8.98
2022-09-24T12:52:41.697Z,5.20
2022-09-24T12:58:03.722Z,7.90
2022-09-24T13:03:07.128Z,7.13
2022-09-24T13:08:17.063Z,4.65
2022-09-24T13:13:26.155Z,5.80
2022-09-24T13:18:29.148Z,4.07
2022-09-24T13:23:37.977Z,3.83
2022-09-24T13:28:51.465Z,3.97
2022-09-24T13:34:25.233Z,3.90
2022-09-24T13:39:34.029Z,8.20
2022-09-24T13:44:56.100Z,6.93
2022-09-24T13:50:08.137Z,5.80
2022-09-24T13:55:22.307Z,8.10
2022-09-24T14:00:27.879Z,6.65
2022-09-24T14:05:37.136Z,4.13
2022-09-24T14:10:42.905Z,4.28
2022-09-24T14:16:14.980Z,23.30
2022-09-24T14:21:27.925Z,4.35
2022-09-24T14:26:39.382Z,8.68
2022-09-24T14:31:47.511Z,10.25
2022-09-24T14:36:52.495Z,8.43
2022-09-24T14:41:56.956Z,5.30
2022-09-24T14:46:59.687Z,3.33
2022-09-24T14:52:03.979Z,2.83
2022-09-24T14:57:19.517Z,3.90
2022-09-24T15:02:28.186Z,3.20
2022-09-24T15:07:31.237Z,2.95
2022-09-24T15:12:39.066Z,2.80
2022-09-24T15:17:41.407Z,5.00
2022-09-24T15:22:43.842Z,4.00
2022-09-24T15:27:46.371Z,3.83
2022-09-24T15:32:50.220Z,4.00
2022-09-24T15:37:52.975Z,3.38
2022-09-24T15:42:55.222Z,3.20
2022-09-24T15:47:57.568Z,2.90
2022-09-24T15:53:01.193Z,3.40
2022-09-24T15:58:10.074Z,7.45
2022-09-24T16:03:25.623Z,135.38
2022-09-24T16:08:29.339Z,92.28
2022-09-24T16:13:32.421Z,164.00
2022-09-24T16:18:35.685Z,202.93
2022-09-24T16:28:40.420Z,58.28
2022-09-24T16:33:43.001Z,69.70
2022-09-24T16:38:45.311Z,76.00
2022-09-24T16:43:47.828Z,136.05
2022-09-24T16:48:50.220Z,120.50
2022-09-24T16:53:56.245Z,73.40
2022-09-24T16:58:58.956Z,38.95
2022-09-24T17:09:23.623Z,23.60
2022-09-24T17:14:25.929Z,24.38
2022-09-24T17:19:28.360Z,18.10
2022-09-24T17:24:31.890Z,15.02
2022-09-24T17:29:34.534Z,16.00
2022-09-24T17:34:36.840Z,17.33
2022-09-24T17:39:39.441Z,17.30
2022-09-24T17:44:41.901Z,17.97
2022-09-24T17:49:44.846Z,23.25
2022-09-24T17:54:48.171Z,19.48
2022-09-24T17:59:50.484Z,17.80
2022-09-24T18:04:53.535Z,17.17
2022-09-24T18:09:57.544Z,15.35
2022-09-24T18:14:59.949Z,14.48
2022-09-24T18:20:02.870Z,15.32
2022-09-24T18:25:07.618Z,16.42
2022-09-24T18:30:11.910Z,16.65
2022-09-24T18:35:14.958Z,18.20
2022-09-24T18:40:21.593Z,28.65
2022-09-24T18:45:25.441Z,46.25
2022-09-24T18:50:28.524Z,41.63
2022-09-24T18:55:31.373Z,38.38
2022-09-24T19:00:54.944Z,38.92
2022-09-24T19:06:03.892Z,29.02
2022-09-24T19:11:10.076Z,25.08
2022-09-24T19:16:18.299Z,23.98
2022-09-24T19:21:22.826Z,24.27
2022-09-24T19:26:29.329Z,22.17
2022-09-24T19:31:36.792Z,20.35
2022-09-24T19:36:44.140Z,19.75
2022-09-24T19:41:47.576Z,18.48
2022-09-24T19:46:50.463Z,22.95
2022-09-24T19:51:52.961Z,28.17
2022-09-24T19:57:04.614Z,32.17
2022-09-24T20:02:12.753Z,30.92
2022-09-24T20:07:48.737Z,25.58
2022-09-24T20:12:52.161Z,23.70
2022-09-24T20:17:55.670Z,20.45
2022-09-24T20:28:03.494Z,19.02
2022-09-24T20:33:07.829Z,25.92
2022-09-24T20:38:10.371Z,34.00
2022-09-24T20:43:12.701Z,34.15
2022-09-24T20:48:15.557Z,37.28
2022-09-24T20:53:18.827Z,36.95
2022-09-24T20:58:21.315Z,39.40
2022-09-24T21:03:42.811Z,40.43
2022-09-24T21:08:47.113Z,39.08
2022-09-24T21:13:52.081Z,38.72
2022-09-24T21:18:55.013Z,37.00
2022-09-24T21:23:59.299Z,35.03
2022-09-24T21:29:13.132Z,34.13
2022-09-24T21:34:17.554Z,36.72
2022-09-24T21:39:23.331Z,36.90
2022-09-24T21:44:26.142Z,36.33
2022-09-24T21:49:28.599Z,34.90
2022-09-24T21:54:32.242Z,33.03
2022-09-24T22:04:56.242Z,30.15
2022-09-24T22:09:58.602Z,28.17
2022-09-24T22:15:03.111Z,28.08
2022-09-24T22:20:06.080Z,27.85
2022-09-24T22:25:08.821Z,25.88
2022-09-24T22:30:12.085Z,26.40
2022-09-24T22:35:33.483Z,25.50
2022-09-24T22:40:36.449Z,25.92
2022-09-24T22:45:39.467Z,25.30
2022-09-24T22:50:45.239Z,24.50
2022-09-24T22:55:51.876Z,24.73
2022-09-24T23:00:55.427Z,21.10
2022-09-24T23:06:00.470Z,18.77
2022-09-24T23:11:13.572Z,18.08
2022-09-24T23:16:18.173Z,19.75
2022-09-24T23:21:21.888Z,19.27
2022-09-24T23:26:28.754Z,19.02
2022-09-24T23:31:35.548Z,20.92
2022-09-24T23:36:37.927Z,19.80
2022-09-24T23:41:40.606Z,19.42
2022-09-24T23:46:43.041Z,19.23
2022-09-24T23:51:45.470Z,19.35
2022-09-24T23:56:48.787Z,19.30
